sensor_id;sensor_type;location;lat;lon;timestamp;P1;durP1;ratioP1;P2;durP2;ratioP2
22929;SDS011;11630;42.660;23.292;2023-08-24T00:02:12;15.20;;;11.07;;
22929;SDS011;11630;42.660;23.292;2023-08-24T00:04:42;13.73;;;10.73;;
22929;SDS011;11630;42.660;23.292;2023-08-24T00:07:13;15.07;;;11.07;;
22929;SDS011;11630;42.660;23.292;2023-08-24T00:09:44;13.60;;;10.97;;
22929;SDS011;11630;42.660;23.292;2023-08-24T00:12:15;13.23;;;10.50;;
22929;SDS011;11630;42.660;23.292;2023-08-24T00:14:46;23.23;;;11.67;;
22929;SDS011;11630;42.660;23.292;2023-08-24T00:17:20;19.43;;;11.37;;
22929;SDS011;11630;42.660;23.292;2023-08-24T00:19:49;17.57;;;11.03;;
22929;SDS011;11630;42.660;23.292;2023-08-24T00:22:19;17.20;;;11.40;;
22929;SDS011;11630;42.660;23.292;2023-08-24T00:24:50;14.37;;;10.50;;
22929;SDS011;11630;42.660;23.292;2023-08-24T00:27:21;15.50;;;10.77;;
22929;SDS011;11630;42.660;23.292;2023-08-24T00:29:52;24.53;;;11.97;;
22929;SDS011;11630;42.660;23.292;2023-08-24T00:32:23;17.27;;;11.27;;
22929;SDS011;11630;42.660;23.292;2023-08-24T00:34:52;11.60;;;10.40;;
22929;SDS011;11630;42.660;23.292;2023-08-24T00:37:25;21.20;;;11.20;;
22929;SDS011;11630;42.660;23.292;2023-08-24T00:40:02;16.90;;;11.00;;
22929;SDS011;11630;42.660;23.292;2023-08-24T00:42:40;14.40;;;11.33;;
22929;SDS011;11630;42.660;23.292;2023-08-24T00:45:12;16.20;;;11.13;;
22929;SDS011;11630;42.660;23.292;2023-08-24T00:47:44;13.27;;;11.20;;
22929;SDS011;11630;42.660;23.292;2023-08-24T00:50:16;16.50;;;11.03;;
22929;SDS011;11630;42.660;23.292;2023-08-24T00:52:48;11.73;;;10.53;;
22929;SDS011;11630;42.660;23.292;2023-08-24T00:55:20;12.60;;;10.73;;
22929;SDS011;11630;42.660;23.292;2023-08-24T00:57:50;12.07;;;10.77;;
22929;SDS011;11630;42.660;23.292;2023-08-24T01:00:22;13.33;;;10.70;;
22929;SDS011;11630;42.660;23.292;2023-08-24T01:02:53;11.93;;;10.73;;
22929;SDS011;11630;42.660;23.292;2023-08-24T01:05:24;14.43;;;11.77;;
22929;SDS011;11630;42.660;23.292;2023-08-24T01:07:55;14.63;;;12.40;;
22929;SDS011;11630;42.660;23.292;2023-08-24T01:10:26;15.23;;;11.37;;
22929;SDS011;11630;42.660;23.292;2023-08-24T01:13:00;13.30;;;12.00;;
22929;SDS011;11630;42.660;23.292;2023-08-24T01:15:37;13.13;;;11.70;;
22929;SDS011;11630;42.660;23.292;2023-08-24T01:18:08;17.07;;;11.33;;
22929;SDS011;11630;42.660;23.292;2023-08-24T01:20:39;16.63;;;11.07;;
22929;SDS011;11630;42.660;23.292;2023-08-24T01:26:27;13.37;;;10.43;;
22929;SDS011;11630;42.660;23.292;2023-08-24T01:28:45;12.27;;;11.13;;
22929;SDS011;11630;42.660;23.292;2023-08-24T01:31:16;19.50;;;12.40;;
22929;SDS011;11630;42.660;23.292;2023-08-24T01:33:47;16.73;;;11.93;;
22929;SDS011;11630;42.660;23.292;2023-08-24T01:36:19;19.70;;;11.97;;
22929;SDS011;11630;42.660;23.292;2023-08-24T01:38:53;16.50;;;11.83;;
22929;SDS011;11630;42.660;23.292;2023-08-24T01:41:28;14.00;;;11.60;;
22929;SDS011;11630;42.660;23.292;2023-08-24T01:44:00;17.43;;;11.13;;
22929;SDS011;11630;42.660;23.292;2023-08-24T01:46:35;15.93;;;10.93;;
22929;SDS011;11630;42.660;23.292;2023-08-24T01:49:11;13.03;;;11.73;;
22929;SDS011;11630;42.660;23.292;2023-08-24T01:51:42;14.07;;;10.87;;
22929;SDS011;11630;42.660;23.292;2023-08-24T01:54:14;13.03;;;11.13;;
22929;SDS011;11630;42.660;23.292;2023-08-24T01:56:45;13.30;;;10.60;;
22929;SDS011;11630;42.660;23.292;2023-08-24T01:59:16;14.97;;;11.80;;
22929;SDS011;11630;42.660;23.292;2023-08-24T02:01:47;13.03;;;11.53;;
22929;SDS011;11630;42.660;23.292;2023-08-24T02:04:18;12.67;;;11.33;;
22929;SDS011;11630;42.660;23.292;2023-08-24T02:06:49;17.87;;;11.30;;
22929;SDS011;11630;42.660;23.292;2023-08-24T02:09:20;12.87;;;11.47;;
22929;SDS011;11630;42.660;23.292;2023-08-24T02:11:51;13.33;;;11.60;;
22929;SDS011;11630;42.660;23.292;2023-08-24T02:14:21;13.07;;;11.63;;
22929;SDS011;11630;42.660;23.292;2023-08-24T02:16:51;13.77;;;12.37;;
22929;SDS011;11630;42.660;23.292;2023-08-24T02:19:22;15.83;;;11.97;;
22929;SDS011;11630;42.660;23.292;2023-08-24T02:21:53;14.23;;;12.60;;
22929;SDS011;11630;42.660;23.292;2023-08-24T02:24:24;13.30;;;11.90;;
22929;SDS011;11630;42.660;23.292;2023-08-24T02:26:57;14.70;;;13.17;;
22929;SDS011;11630;42.660;23.292;2023-08-24T02:29:28;14.70;;;11.97;;
22929;SDS011;11630;42.660;23.292;2023-08-24T02:31:59;18.20;;;12.67;;
22929;SDS011;11630;42.660;23.292;2023-08-24T02:34:30;20.77;;;13.57;;
22929;SDS011;11630;42.660;23.292;2023-08-24T02:37:01;15.33;;;13.10;;
22929;SDS011;11630;42.660;23.292;2023-08-24T02:39:31;17.17;;;13.57;;
22929;SDS011;11630;42.660;23.292;2023-08-24T02:42:02;17.97;;;12.23;;
22929;SDS011;11630;42.660;23.292;2023-08-24T02:44:34;17.03;;;12.87;;
22929;SDS011;11630;42.660;23.292;2023-08-24T02:47:08;15.03;;;13.47;;
22929;SDS011;11630;42.660;23.292;2023-08-24T02:49:39;14.00;;;12.37;;
22929;SDS011;11630;42.660;23.292;2023-08-24T02:52:11;13.27;;;11.97;;
22929;SDS011;11630;42.660;23.292;2023-08-24T02:54:42;18.00;;;12.07;;
22929;SDS011;11630;42.660;23.292;2023-08-24T02:57:13;15.17;;;12.13;;
22929;SDS011;11630;42.660;23.292;2023-08-24T02:59:48;14.67;;;12.07;;
22929;SDS011;11630;42.660;23.292;2023-08-24T03:02:19;15.87;;;12.23;;
22929;SDS011;11630;42.660;23.292;2023-08-24T03:04:50;14.03;;;12.57;;
22929;SDS011;11630;42.660;23.292;2023-08-24T03:07:21;14.23;;;12.73;;
22929;SDS011;11630;42.660;23.292;2023-08-24T03:09:51;17.43;;;14.10;;
22929;SDS011;11630;42.660;23.292;2023-08-24T03:12:25;18.40;;;13.53;;
22929;SDS011;11630;42.660;23.292;2023-08-24T03:14:56;17.17;;;13.50;;
22929;SDS011;11630;42.660;23.292;2023-08-24T03:17:27;23.50;;;13.40;;
22929;SDS011;11630;42.660;23.292;2023-08-24T03:19:58;16.07;;;14.30;;
22929;SDS011;11630;42.660;23.292;2023-08-24T03:22:28;19.00;;;16.47;;
22929;SDS011;11630;42.660;23.292;2023-08-24T03:25:00;25.87;;;17.17;;
22929;SDS011;11630;42.660;23.292;2023-08-24T03:27:31;28.20;;;18.27;;
22929;SDS011;11630;42.660;23.292;2023-08-24T03:30:02;27.20;;;20.33;;
22929;SDS011;11630;42.660;23.292;2023-08-24T03:32:34;24.80;;;18.10;;
22929;SDS011;11630;42.660;23.292;2023-08-24T03:35:04;26.37;;;19.57;;
22929;SDS011;11630;42.660;23.292;2023-08-24T03:37:35;22.37;;;17.93;;
22929;SDS011;11630;42.660;23.292;2023-08-24T03:40:06;14.80;;;13.13;;
22929;SDS011;11630;42.660;23.292;2023-08-24T03:42:37;17.37;;;15.47;;
22929;SDS011;11630;42.660;23.292;2023-08-24T03:45:07;23.03;;;17.03;;
22929;SDS011;11630;42.660;23.292;2023-08-24T03:47:39;24.90;;;17.70;;
22929;SDS011;11630;42.660;23.292;2023-08-24T03:50:11;25.73;;;21.77;;
22929;SDS011;11630;42.660;23.292;2023-08-24T03:52:42;31.53;;;23.13;;
22929;SDS011;11630;42.660;23.292;2023-08-24T03:55:12;29.83;;;23.13;;
22929;SDS011;11630;42.660;23.292;2023-08-24T03:57:43;29.80;;;23.30;;
22929;SDS011;11630;42.660;23.292;2023-08-24T04:00:15;25.13;;;21.33;;
22929;SDS011;11630;42.660;23.292;2023-08-24T04:02:44;32.70;;;24.07;;
22929;SDS011;11630;42.660;23.292;2023-08-24T04:05:15;31.57;;;23.03;;
22929;SDS011;11630;42.660;23.292;2023-08-24T04:07:46;31.90;;;22.83;;
22929;SDS011;11630;42.660;23.292;2023-08-24T04:10:16;26.73;;;21.00;;
22929;SDS011;11630;42.660;23.292;2023-08-24T04:12:46;29.23;;;22.43;;
22929;SDS011;11630;42.660;23.292;2023-08-24T04:15:17;33.03;;;21.77;;
22929;SDS011;11630;42.660;23.292;2023-08-24T04:17:49;24.80;;;20.60;;
22929;SDS011;11630;42.660;23.292;2023-08-24T04:20:20;32.43;;;22.00;;
22929;SDS011;11630;42.660;23.292;2023-08-24T04:22:51;38.47;;;19.37;;
22929;SDS011;11630;42.660;23.292;2023-08-24T04:25:22;28.87;;;19.13;;
22929;SDS011;11630;42.660;23.292;2023-08-24T04:27:53;31.33;;;22.53;;
22929;SDS011;11630;42.660;23.292;2023-08-24T04:30:24;31.60;;;21.90;;
22929;SDS011;11630;42.660;23.292;2023-08-24T04:32:55;41.30;;;24.03;;
22929;SDS011;11630;42.660;23.292;2023-08-24T04:35:26;34.80;;;25.47;;
22929;SDS011;11630;42.660;23.292;2023-08-24T04:37:57;31.67;;;26.30;;
22929;SDS011;11630;42.660;23.292;2023-08-24T04:40:27;34.30;;;24.87;;
22929;SDS011;11630;42.660;23.292;2023-08-24T04:42:58;36.70;;;24.83;;
22929;SDS011;11630;42.660;23.292;2023-08-24T04:45:29;28.90;;;22.13;;
22929;SDS011;11630;42.660;23.292;2023-08-24T04:48:00;35.70;;;21.33;;
22929;SDS011;11630;42.660;23.292;2023-08-24T04:50:31;37.23;;;21.67;;
22929;SDS011;11630;42.660;23.292;2023-08-24T04:53:02;46.10;;;22.90;;
22929;SDS011;11630;42.660;23.292;2023-08-24T04:55:33;33.10;;;22.07;;
22929;SDS011;11630;42.660;23.292;2023-08-24T04:58:04;36.07;;;22.47;;
22929;SDS011;11630;42.660;23.292;2023-08-24T05:00:37;32.03;;;23.17;;
22929;SDS011;11630;42.660;23.292;2023-08-24T05:03:06;35.83;;;24.90;;
22929;SDS011;11630;42.660;23.292;2023-08-24T05:05:36;40.60;;;24.30;;
22929;SDS011;11630;42.660;23.292;2023-08-24T05:08:07;31.83;;;23.70;;
22929;SDS011;11630;42.660;23.292;2023-08-24T05:10:38;41.77;;;23.70;;
22929;SDS011;11630;42.660;23.292;2023-08-24T05:13:09;37.77;;;23.67;;
22929;SDS011;11630;42.660;23.292;2023-08-24T05:15:40;38.33;;;24.17;;
22929;SDS011;11630;42.660;23.292;2023-08-24T05:18:10;32.13;;;22.77;;
22929;SDS011;11630;42.660;23.292;2023-08-24T05:20:41;41.57;;;24.13;;
22929;SDS011;11630;42.660;23.292;2023-08-24T05:23:12;31.60;;;23.33;;
22929;SDS011;11630;42.660;23.292;2023-08-24T05:25:43;34.07;;;24.10;;
22929;SDS011;11630;42.660;23.292;2023-08-24T05:28:14;37.73;;;26.20;;
22929;SDS011;11630;42.660;23.292;2023-08-24T05:30:45;35.33;;;25.13;;
22929;SDS011;11630;42.660;23.292;2023-08-24T05:33:16;33.20;;;24.73;;
22929;SDS011;11630;42.660;23.292;2023-08-24T05:35:48;33.43;;;24.60;;
22929;SDS011;11630;42.660;23.292;2023-08-24T05:38:20;36.83;;;24.63;;
22929;SDS011;11630;42.660;23.292;2023-08-24T05:40:52;38.63;;;25.43;;
22929;SDS011;11630;42.660;23.292;2023-08-24T05:43:25;39.07;;;24.03;;
22929;SDS011;11630;42.660;23.292;2023-08-24T05:45:55;41.27;;;24.40;;
22929;SDS011;11630;42.660;23.292;2023-08-24T05:48:26;39.37;;;23.53;;
22929;SDS011;11630;42.660;23.292;2023-08-24T05:50:57;30.83;;;22.13;;
22929;SDS011;11630;42.660;23.292;2023-08-24T05:53:30;28.60;;;22.13;;
22929;SDS011;11630;42.660;23.292;2023-08-24T05:56:01;31.13;;;23.90;;
22929;SDS011;11630;42.660;23.292;2023-08-24T05:58:32;28.80;;;23.70;;
22929;SDS011;11630;42.660;23.292;2023-08-24T06:01:02;36.80;;;25.43;;
22929;SDS011;11630;42.660;23.292;2023-08-24T06:03:34;39.87;;;26.13;;
22929;SDS011;11630;42.660;23.292;2023-08-24T06:06:05;32.60;;;24.53;;
22929;SDS011;11630;42.660;23.292;2023-08-24T06:08:41;40.40;;;25.13;;
22929;SDS011;11630;42.660;23.292;2023-08-24T06:11:12;38.57;;;27.10;;
22929;SDS011;11630;42.660;23.292;2023-08-24T06:13:42;38.73;;;26.43;;
22929;SDS011;11630;42.660;23.292;2023-08-24T06:16:13;40.13;;;26.73;;
22929;SDS011;11630;42.660;23.292;2023-08-24T06:18:45;43.40;;;25.60;;
22929;SDS011;11630;42.660;23.292;2023-08-24T06:21:16;45.53;;;26.73;;
22929;SDS011;11630;42.660;23.292;2023-08-24T06:23:46;34.90;;;25.07;;
22929;SDS011;11630;42.660;23.292;2023-08-24T06:26:17;37.10;;;23.20;;
22929;SDS011;11630;42.660;23.292;2023-08-24T06:28:50;30.67;;;20.97;;
22929;SDS011;11630;42.660;23.292;2023-08-24T06:31:21;34.80;;;21.73;;
22929;SDS011;11630;42.660;23.292;2023-08-24T06:33:52;30.47;;;19.97;;
22929;SDS011;11630;42.660;23.292;2023-08-24T06:36:22;32.37;;;19.73;;
22929;SDS011;11630;42.660;23.292;2023-08-24T06:38:53;26.77;;;17.97;;
22929;SDS011;11630;42.660;23.292;2023-08-24T06:41:24;30.83;;;18.90;;
22929;SDS011;11630;42.660;23.292;2023-08-24T06:43:55;35.63;;;18.43;;
22929;SDS011;11630;42.660;23.292;2023-08-24T06:46:26;25.67;;;16.50;;
22929;SDS011;11630;42.660;23.292;2023-08-24T06:48:57;22.70;;;17.27;;
22929;SDS011;11630;42.660;23.292;2023-08-24T06:51:27;25.07;;;16.77;;
22929;SDS011;11630;42.660;23.292;2023-08-24T06:53:58;22.23;;;16.20;;
22929;SDS011;11630;42.660;23.292;2023-08-24T06:56:29;23.13;;;17.27;;
22929;SDS011;11630;42.660;23.292;2023-08-24T06:59:00;23.77;;;17.37;;
22929;SDS011;11630;42.660;23.292;2023-08-24T07:01:31;23.77;;;15.27;;
22929;SDS011;11630;42.660;23.292;2023-08-24T07:04:02;43.57;;;17.03;;
22929;SDS011;11630;42.660;23.292;2023-08-24T07:06:35;19.57;;;15.00;;
22929;SDS011;11630;42.660;23.292;2023-08-24T07:09:06;18.27;;;15.37;;
22929;SDS011;11630;42.660;23.292;2023-08-24T07:11:35;24.50;;;14.80;;
22929;SDS011;11630;42.660;23.292;2023-08-24T07:14:06;19.27;;;15.93;;
22929;SDS011;11630;42.660;23.292;2023-08-24T07:16:37;20.53;;;14.33;;
22929;SDS011;11630;42.660;23.292;2023-08-24T07:19:09;15.70;;;13.33;;
22929;SDS011;11630;42.660;23.292;2023-08-24T07:21:40;25.07;;;14.30;;
22929;SDS011;11630;42.660;23.292;2023-08-24T07:24:11;19.97;;;14.87;;
22929;SDS011;11630;42.660;23.292;2023-08-24T07:26:42;17.10;;;13.73;;
22929;SDS011;11630;42.660;23.292;2023-08-24T07:29:13;19.23;;;14.97;;
22929;SDS011;11630;42.660;23.292;2023-08-24T07:31:43;19.93;;;15.47;;
22929;SDS011;11630;42.660;23.292;2023-08-24T07:34:14;25.97;;;14.63;;
22929;SDS011;11630;42.660;23.292;2023-08-24T07:36:45;25.13;;;15.07;;
22929;SDS011;11630;42.660;23.292;2023-08-24T07:39:17;17.13;;;14.17;;
22929;SDS011;11630;42.660;23.292;2023-08-24T07:41:50;15.37;;;12.77;;
22929;SDS011;11630;42.660;23.292;2023-08-24T07:44:19;21.47;;;14.33;;
22929;SDS011;11630;42.660;23.292;2023-08-24T07:46:50;19.13;;;14.03;;
22929;SDS011;11630;42.660;23.292;2023-08-24T07:49:20;15.73;;;13.63;;
22929;SDS011;11630;42.660;23.292;2023-08-24T07:51:50;19.37;;;14.63;;
22929;SDS011;11630;42.660;23.292;2023-08-24T07:54:21;20.03;;;13.93;;
22929;SDS011;11630;42.660;23.292;2023-08-24T07:56:52;21.82;;;13.65;;
22929;SDS011;11630;42.660;23.292;2023-08-24T07:59:23;22.37;;;14.63;;
22929;SDS011;11630;42.660;23.292;2023-08-24T08:01:55;19.80;;;14.00;;
22929;SDS011;11630;42.660;23.292;2023-08-24T08:04:26;18.40;;;12.93;;
22929;SDS011;11630;42.660;23.292;2023-08-24T08:06:57;17.93;;;13.83;;
22929;SDS011;11630;42.660;23.292;2023-08-24T08:09:27;22.15;;;13.55;;
22929;SDS011;11630;42.660;23.292;2023-08-24T08:11:58;16.50;;;12.15;;
22929;SDS011;11630;42.660;23.292;2023-08-24T08:14:29;15.70;;;13.13;;
22929;SDS011;11630;42.660;23.292;2023-08-24T08:17:00;18.80;;;12.82;;
22929;SDS011;11630;42.660;23.292;2023-08-24T08:19:34;20.90;;;13.75;;
22929;SDS011;11630;42.660;23.292;2023-08-24T08:22:05;20.17;;;13.08;;
22929;SDS011;11630;42.660;23.292;2023-08-24T08:24:36;20.12;;;11.57;;
22929;SDS011;11630;42.660;23.292;2023-08-24T08:27:07;23.55;;;13.40;;
22929;SDS011;11630;42.660;23.292;2023-08-24T08:29:37;21.57;;;13.05;;
22929;SDS011;11630;42.660;23.292;2023-08-24T08:32:08;22.02;;;13.00;;
22929;SDS011;11630;42.660;23.292;2023-08-24T08:34:41;20.12;;;13.35;;
22929;SDS011;11630;42.660;23.292;2023-08-24T08:37:15;13.62;;;12.23;;
22929;SDS011;11630;42.660;23.292;2023-08-24T08:39:46;22.37;;;13.22;;
22929;SDS011;11630;42.660;23.292;2023-08-24T08:42:17;18.55;;;13.30;;
22929;SDS011;11630;42.660;23.292;2023-08-24T08:44:48;14.05;;;12.53;;
22929;SDS011;11630;42.660;23.292;2023-08-24T08:47:18;16.05;;;11.85;;
22929;SDS011;11630;42.660;23.292;2023-08-24T08:49:50;17.92;;;11.80;;
22929;SDS011;11630;42.660;23.292;2023-08-24T08:52:22;20.23;;;13.22;;
22929;SDS011;11630;42.660;23.292;2023-08-24T08:54:53;20.17;;;13.43;;
22929;SDS011;11630;42.660;23.292;2023-08-24T08:57:23;18.15;;;12.70;;
22929;SDS011;11630;42.660;23.292;2023-08-24T08:59:53;14.65;;;13.00;;
22929;SDS011;11630;42.660;23.292;2023-08-24T09:02:25;14.40;;;11.88;;
22929;SDS011;11630;42.660;23.292;2023-08-24T09:04:57;17.40;;;13.08;;
22929;SDS011;11630;42.660;23.292;2023-08-24T09:07:28;14.00;;;12.50;;
22929;SDS011;11630;42.660;23.292;2023-08-24T09:09:59;18.23;;;12.00;;
22929;SDS011;11630;42.660;23.292;2023-08-24T09:12:31;13.35;;;12.07;;
22929;SDS011;11630;42.660;23.292;2023-08-24T09:15:04;18.10;;;12.93;;
22929;SDS011;11630;42.660;23.292;2023-08-24T09:17:34;14.20;;;12.80;;
22929;SDS011;11630;42.660;23.292;2023-08-24T09:20:08;14.75;;;12.70;;
22929;SDS011;11630;42.660;23.292;2023-08-24T09:22:37;14.30;;;12.25;;
22929;SDS011;11630;42.660;23.292;2023-08-24T09:25:09;16.25;;;13.08;;
22929;SDS011;11630;42.660;23.292;2023-08-24T09:27:38;15.72;;;12.37;;
22929;SDS011;11630;42.660;23.292;2023-08-24T09:30:09;16.75;;;11.68;;
22929;SDS011;11630;42.660;23.292;2023-08-24T09:32:39;14.68;;;13.05;;
22929;SDS011;11630;42.660;23.292;2023-08-24T09:35:11;17.32;;;12.50;;
22929;SDS011;11630;42.660;23.292;2023-08-24T09:37:42;17.80;;;13.93;;
22929;SDS011;11630;42.660;23.292;2023-08-24T09:40:13;15.68;;;12.07;;
22929;SDS011;11630;42.660;23.292;2023-08-24T09:42:43;14.87;;;12.68;;
22929;SDS011;11630;42.660;23.292;2023-08-24T09:45:14;13.22;;;11.93;;
22929;SDS011;11630;42.660;23.292;2023-08-24T09:47:54;21.02;;;14.38;;
22929;SDS011;11630;42.660;23.292;2023-08-24T09:50:20;13.90;;;12.07;;
22929;SDS011;11630;42.660;23.292;2023-08-24T09:52:50;15.95;;;12.68;;
22929;SDS011;11630;42.660;23.292;2023-08-24T09:55:25;13.13;;;11.83;;
22929;SDS011;11630;42.660;23.292;2023-08-24T09:57:57;13.53;;;11.57;;
22929;SDS011;11630;42.660;23.292;2023-08-24T10:00:29;15.78;;;12.63;;
22929;SDS011;11630;42.660;23.292;2023-08-24T10:03:01;16.75;;;12.20;;
22929;SDS011;11630;42.660;23.292;2023-08-24T10:05:31;15.65;;;11.73;;
22929;SDS011;11630;42.660;23.292;2023-08-24T10:08:03;15.25;;;11.35;;
22929;SDS011;11630;42.660;23.292;2023-08-24T10:10:38;15.83;;;12.15;;
22929;SDS011;11630;42.660;23.292;2023-08-24T10:13:17;12.70;;;11.57;;
22929;SDS011;11630;42.660;23.292;2023-08-24T10:15:45;15.32;;;11.15;;
22929;SDS011;11630;42.660;23.292;2023-08-24T10:18:17;12.93;;;9.38;;
22929;SDS011;11630;42.660;23.292;2023-08-24T10:20:51;15.05;;;9.63;;
22929;SDS011;11630;42.660;23.292;2023-08-24T10:23:22;15.38;;;10.43;;
22929;SDS011;11630;42.660;23.292;2023-08-24T10:25:53;11.22;;;8.28;;
22929;SDS011;11630;42.660;23.292;2023-08-24T10:28:27;12.18;;;10.15;;
22929;SDS011;11630;42.660;23.292;2023-08-24T10:30:58;16.07;;;11.53;;
22929;SDS011;11630;42.660;23.292;2023-08-24T10:33:30;16.25;;;11.25;;
22929;SDS011;11630;42.660;23.292;2023-08-24T10:36:04;16.27;;;11.93;;
22929;SDS011;11630;42.660;23.292;2023-08-24T10:38:40;19.52;;;11.43;;
22929;SDS011;11630;42.660;23.292;2023-08-24T10:41:07;16.27;;;11.33;;
22929;SDS011;11630;42.660;23.292;2023-08-24T10:43:41;15.85;;;11.00;;
22929;SDS011;11630;42.660;23.292;2023-08-24T10:46:13;11.90;;;10.80;;
22929;SDS011;11630;42.660;23.292;2023-08-24T10:51:26;13.22;;;11.03;;
22929;SDS011;11630;42.660;23.292;2023-08-24T10:54:02;24.57;;;11.93;;
22929;SDS011;11630;42.660;23.292;2023-08-24T10:56:36;12.28;;;10.98;;
22929;SDS011;11630;42.660;23.292;2023-08-24T10:59:17;17.80;;;10.32;;
22929;SDS011;11630;42.660;23.292;2023-08-24T11:01:54;11.50;;;10.30;;
22929;SDS011;11630;42.660;23.292;2023-08-24T11:04:28;13.20;;;9.95;;
22929;SDS011;11630;42.660;23.292;2023-08-24T11:06:59;24.43;;;11.30;;
22929;SDS011;11630;42.660;23.292;2023-08-24T11:09:46;17.23;;;12.05;;
22929;SDS011;11630;42.660;23.292;2023-08-24T11:12:21;15.20;;;11.83;;
22929;SDS011;11630;42.660;23.292;2023-08-24T11:14:51;21.07;;;12.68;;
22929;SDS011;11630;42.660;23.292;2023-08-24T11:17:23;12.43;;;11.22;;
22929;SDS011;11630;42.660;23.292;2023-08-24T11:19:54;14.78;;;10.38;;
22929;SDS011;11630;42.660;23.292;2023-08-24T11:22:25;19.27;;;10.72;;
22929;SDS011;11630;42.660;23.292;2023-08-24T11:24:56;15.43;;;11.35;;
22929;SDS011;11630;42.660;23.292;2023-08-24T11:27:27;15.05;;;10.55;;
22929;SDS011;11630;42.660;23.292;2023-08-24T11:30:02;14.23;;;10.80;;
22929;SDS011;11630;42.660;23.292;2023-08-24T11:32:34;19.80;;;12.20;;
22929;SDS011;11630;42.660;23.292;2023-08-24T11:35:06;18.05;;;11.45;;
22929;SDS011;11630;42.660;23.292;2023-08-24T11:37:37;15.88;;;10.85;;
22929;SDS011;11630;42.660;23.292;2023-08-24T11:40:16;18.32;;;11.57;;
22929;SDS011;11630;42.660;23.292;2023-08-24T11:42:45;27.37;;;10.65;;
22929;SDS011;11630;42.660;23.292;2023-08-24T11:45:16;13.40;;;8.88;;
22929;SDS011;11630;42.660;23.292;2023-08-24T11:47:46;12.10;;;8.58;;
22929;SDS011;11630;42.660;23.292;2023-08-24T11:50:18;17.90;;;9.78;;
22929;SDS011;11630;42.660;23.292;2023-08-24T11:52:49;12.15;;;9.30;;
22929;SDS011;11630;42.660;23.292;2023-08-24T11:55:21;12.53;;;10.93;;
22929;SDS011;11630;42.660;23.292;2023-08-24T11:57:52;11.70;;;9.53;;
22929;SDS011;11630;42.660;23.292;2023-08-24T12:00:23;10.45;;;9.00;;
22929;SDS011;11630;42.660;23.292;2023-08-24T12:02:53;12.60;;;10.58;;
22929;SDS011;11630;42.660;23.292;2023-08-24T12:05:25;14.10;;;9.55;;
22929;SDS011;11630;42.660;23.292;2023-08-24T12:07:56;10.58;;;9.45;;
22929;SDS011;11630;42.660;23.292;2023-08-24T12:10:27;14.50;;;9.85;;
22929;SDS011;11630;42.660;23.292;2023-08-24T12:13:02;12.28;;;9.73;;
22929;SDS011;11630;42.660;23.292;2023-08-24T12:15:34;11.40;;;9.45;;
22929;SDS011;11630;42.660;23.292;2023-08-24T12:18:11;10.43;;;9.40;;
22929;SDS011;11630;42.660;23.292;2023-08-24T12:20:43;13.72;;;10.28;;
22929;SDS011;11630;42.660;23.292;2023-08-24T12:23:14;22.17;;;11.88;;
22929;SDS011;11630;42.660;23.292;2023-08-24T12:25:45;17.15;;;11.90;;
22929;SDS011;11630;42.660;23.292;2023-08-24T12:28:17;10.58;;;9.63;;
22929;SDS011;11630;42.660;23.292;2023-08-24T12:30:49;17.82;;;10.48;;
22929;SDS011;11630;42.660;23.292;2023-08-24T12:33:22;12.78;;;9.80;;
22929;SDS011;11630;42.660;23.292;2023-08-24T12:36:00;11.45;;;9.78;;
22929;SDS011;11630;42.660;23.292;2023-08-24T12:38:32;11.68;;;9.35;;
22929;SDS011;11630;42.660;23.292;2023-08-24T12:41:03;11.25;;;9.38;;
22929;SDS011;11630;42.660;23.292;2023-08-24T12:43:34;15.15;;;9.35;;
22929;SDS011;11630;42.660;23.292;2023-08-24T12:46:05;12.80;;;10.88;;
22929;SDS011;11630;42.660;23.292;2023-08-24T12:48:36;14.23;;;10.08;;
22929;SDS011;11630;42.660;23.292;2023-08-24T12:51:07;14.60;;;9.88;;
22929;SDS011;11630;42.660;23.292;2023-08-24T12:53:37;14.25;;;9.65;;
22929;SDS011;11630;42.660;23.292;2023-08-24T12:56:08;11.28;;;9.30;;
22929;SDS011;11630;42.660;23.292;2023-08-24T12:58:39;13.08;;;11.20;;
22929;SDS011;11630;42.660;23.292;2023-08-24T13:01:15;11.90;;;10.03;;
22929;SDS011;11630;42.660;23.292;2023-08-24T13:03:42;11.18;;;9.95;;
22929;SDS011;11630;42.660;23.292;2023-08-24T13:06:12;10.82;;;9.73;;
22929;SDS011;11630;42.660;23.292;2023-08-24T13:08:43;13.15;;;10.60;;
22929;SDS011;11630;42.660;23.292;2023-08-24T13:11:13;17.75;;;11.45;;
22929;SDS011;11630;42.660;23.292;2023-08-24T13:13:48;21.77;;;11.68;;
22929;SDS011;11630;42.660;23.292;2023-08-24T13:16:19;15.95;;;10.45;;
22929;SDS011;11630;42.660;23.292;2023-08-24T13:18:50;11.93;;;10.48;;
22929;SDS011;11630;42.660;23.292;2023-08-24T13:21:21;18.85;;;10.63;;
22929;SDS011;11630;42.660;23.292;2023-08-24T13:23:50;16.25;;;11.33;;
22929;SDS011;11630;42.660;23.292;2023-08-24T13:26:21;19.17;;;11.12;;
22929;SDS011;11630;42.660;23.292;2023-08-24T13:28:57;21.25;;;12.68;;
22929;SDS011;11630;42.660;23.292;2023-08-24T13:31:28;21.60;;;12.78;;
22929;SDS011;11630;42.660;23.292;2023-08-24T13:34:04;15.88;;;11.65;;
22929;SDS011;11630;42.660;23.292;2023-08-24T13:36:34;16.52;;;12.10;;
22929;SDS011;11630;42.660;23.292;2023-08-24T13:39:04;18.40;;;12.05;;
22929;SDS011;11630;42.660;23.292;2023-08-24T13:41:38;17.55;;;11.48;;
22929;SDS011;11630;42.660;23.292;2023-08-24T13:44:08;24.32;;;12.68;;
22929;SDS011;11630;42.660;23.292;2023-08-24T13:46:38;16.55;;;11.33;;
22929;SDS011;11630;42.660;23.292;2023-08-24T13:49:09;18.52;;;11.60;;
22929;SDS011;11630;42.660;23.292;2023-08-24T13:51:40;19.52;;;11.63;;
22929;SDS011;11630;42.660;23.292;2023-08-24T13:54:19;17.87;;;13.18;;
22929;SDS011;11630;42.660;23.292;2023-08-24T13:56:46;16.37;;;12.60;;
22929;SDS011;11630;42.660;23.292;2023-08-24T13:59:17;13.55;;;11.83;;
22929;SDS011;11630;42.660;23.292;2023-08-24T14:01:47;15.78;;;11.60;;
22929;SDS011;11630;42.660;23.292;2023-08-24T14:04:18;21.00;;;12.10;;
22929;SDS011;11630;42.660;23.292;2023-08-24T14:06:49;17.27;;;12.40;;
22929;SDS011;11630;42.660;23.292;2023-08-24T14:09:20;16.40;;;12.93;;
22929;SDS011;11630;42.660;23.292;2023-08-24T14:11:50;14.78;;;11.43;;
22929;SDS011;11630;42.660;23.292;2023-08-24T14:14:21;12.63;;;11.08;;
22929;SDS011;11630;42.660;23.292;2023-08-24T14:16:54;16.10;;;12.58;;
22929;SDS011;11630;42.660;23.292;2023-08-24T14:19:25;22.73;;;12.25;;
22929;SDS011;11630;42.660;23.292;2023-08-24T14:21:55;19.30;;;12.23;;
22929;SDS011;11630;42.660;23.292;2023-08-24T14:24:26;13.78;;;11.30;;
22929;SDS011;11630;42.660;23.292;2023-08-24T14:26:57;15.93;;;12.18;;
22929;SDS011;11630;42.660;23.292;2023-08-24T14:29:28;15.55;;;11.15;;
22929;SDS011;11630;42.660;23.292;2023-08-24T14:31:59;14.33;;;12.03;;
22929;SDS011;11630;42.660;23.292;2023-08-24T14:34:30;21.85;;;12.07;;
22929;SDS011;11630;42.660;23.292;2023-08-24T14:37:01;18.60;;;11.78;;
22929;SDS011;11630;42.660;23.292;2023-08-24T14:39:32;15.50;;;11.38;;
22929;SDS011;11630;42.660;23.292;2023-08-24T14:42:03;13.43;;;11.63;;